createdAt,value
2022-07-29T00:00:21.671Z,100190.13
2022-07-29T00:02:38.533Z,100186.00
2022-07-29T00:04:41.044Z,100199.88
2022-07-29T00:06:43.121Z,100194.78
2022-07-29T00:08:45.044Z,100204.44
2022-07-29T00:10:47.380Z,100197.50
2022-07-29T00:12:49.398Z,100191.78
2022-07-29T00:14:52.772Z,100207.69
2022-07-29T00:16:55.127Z,100198.16
2022-07-29T00:18:59.532Z,100207.09
2022-07-29T00:21:04.159Z,100195.72
2022-07-29T00:23:06.684Z,100190.75
2022-07-29T00:25:09.305Z,100188.78
2022-07-29T00:27:11.286Z,100195.00
2022-07-29T00:31:35.743Z,100187.94
2022-07-29T00:33:38.159Z,100186.50
2022-07-29T00:35:40.363Z,100190.03
2022-07-29T00:37:42.514Z,100188.59
2022-07-29T00:39:44.746Z,100196.28
2022-07-29T00:41:50.277Z,100196.69
2022-07-29T00:43:54.111Z,100163.97
2022-07-29T00:45:56.311Z,100192.69
2022-07-29T00:47:58.582Z,100189.56
2022-07-29T00:50:00.425Z,100187.00
2022-07-29T00:52:06.758Z,100181.53
2022-07-29T00:54:09.330Z,100183.69
2022-07-29T00:56:11.166Z,100182.84
2022-07-29T00:58:14.084Z,100175.53
2022-07-29T01:00:21.071Z,100179.53
2022-07-29T01:02:23.316Z,100176.84
2022-07-29T01:04:25.708Z,100179.41
2022-07-29T01:06:28.089Z,100186.50
2022-07-29T01:08:30.496Z,100177.69
2022-07-29T01:10:33.450Z,100162.50
2022-07-29T01:12:38.169Z,100181.81
2022-07-29T01:14:41.491Z,100187.22
2022-07-29T01:16:52.725Z,100192.59
2022-07-29T01:19:03.245Z,100181.53
2022-07-29T01:21:19.173Z,100190.91
2022-07-29T01:23:47.618Z,100195.44
2022-07-29T01:26:15.495Z,100193.16
2022-07-29T01:28:59.860Z,100188.03
2022-07-29T01:31:04.324Z,100178.38
2022-07-29T01:33:14.180Z,100171.53
2022-07-29T01:35:25.632Z,100179.50
2022-07-29T01:37:38.790Z,100178.06
2022-07-29T01:39:42.697Z,100158.44
2022-07-29T01:42:10.250Z,100176.63
2022-07-29T01:44:32.753Z,100178.84
2022-07-29T01:46:37.825Z,100172.91
2022-07-29T01:48:51.636Z,100177.41
2022-07-29T01:51:03.800Z,100167.03
2022-07-29T01:53:10.718Z,100167.16
2022-07-29T01:55:17.914Z,100162.31
2022-07-29T01:57:27.803Z,100163.31
2022-07-29T01:59:31.982Z,100161.00
2022-07-29T02:01:34.990Z,100166.38
2022-07-29T02:03:40.401Z,100148.16
2022-07-29T02:05:46.554Z,100139.25
2022-07-29T02:07:50.654Z,100133.50
2022-07-29T02:09:55.371Z,100147.44
2022-07-29T02:11:58.860Z,100156.75
2022-07-29T02:14:02.684Z,100156.47
2022-07-29T02:16:08.437Z,100157.47
2022-07-29T02:18:24.025Z,100146.84
2022-07-29T02:20:27.398Z,100143.81
2022-07-29T02:22:32.562Z,100152.81
2022-07-29T02:24:38.338Z,100144.28
2022-07-29T02:26:44.186Z,100154.38
2022-07-29T02:28:48.340Z,100158.19
2022-07-29T02:30:53.772Z,100153.94
2022-07-29T02:32:56.943Z,100148.41
2022-07-29T02:35:00.964Z,100143.19
2022-07-29T02:37:04.685Z,100133.19
2022-07-29T02:39:09.018Z,100128.34
2022-07-29T02:41:21.601Z,100124.06
2022-07-29T02:43:24.718Z,100149.78
2022-07-29T02:45:27.265Z,100141.25
2022-07-29T02:47:42.178Z,100145.53
2022-07-29T02:49:56.561Z,100145.63
2022-07-29T02:52:06.781Z,100139.41
2022-07-29T02:54:12.036Z,100146.75
2022-07-29T02:56:35.560Z,100140.53
2022-07-29T02:58:57.073Z,100145.31
2022-07-29T03:01:05.036Z,100144.72
2022-07-29T03:03:16.303Z,100143.03
2022-07-29T03:05:20.940Z,100142.31
2022-07-29T03:07:24.490Z,100138.38
2022-07-29T03:09:28.566Z,100131.66
2022-07-29T03:11:44.300Z,100143.47
2022-07-29T03:13:52.292Z,100145.06
2022-07-29T03:15:54.976Z,100134.22
2022-07-29T03:17:58.030Z,100142.94
2022-07-29T03:20:00.894Z,100143.53
2022-07-29T03:22:03.274Z,100150.00
2022-07-29T03:24:10.250Z,100149.72
2022-07-29T03:26:14.710Z,100150.53
2022-07-29T03:28:16.918Z,100137.00
2022-07-29T03:30:22.245Z,100152.47
2022-07-29T03:32:25.318Z,100161.28
2022-07-29T03:34:27.438Z,100157.34
2022-07-29T03:36:29.343Z,100170.00
2022-07-29T03:38:36.863Z,100159.25
2022-07-29T03:40:46.897Z,100167.78
2022-07-29T03:42:51.988Z,100155.44
2022-07-29T03:44:57.104Z,100168.94
2022-07-29T03:47:01.191Z,100162.59
2022-07-29T03:49:06.086Z,100170.28
2022-07-29T03:51:08.652Z,100169.13
2022-07-29T03:53:11.777Z,100165.34
2022-07-29T03:55:15.661Z,100164.81
2022-07-29T03:57:21.946Z,100162.25
2022-07-29T03:59:25.493Z,100165.25
2022-07-29T04:01:29.577Z,100170.97
2022-07-29T04:03:32.059Z,100180.34
2022-07-29T04:05:34.189Z,100175.41
2022-07-29T04:07:36.222Z,100181.66
2022-07-29T04:09:38.667Z,100167.38
2022-07-29T04:12:01.979Z,100180.22
2022-07-29T04:14:15.097Z,100181.72
2022-07-29T04:16:20.179Z,100176.47
2022-07-29T04:18:22.583Z,100181.25
2022-07-29T04:20:24.789Z,100174.28
2022-07-29T04:22:27.272Z,100188.00
2022-07-29T04:24:29.486Z,100184.81
2022-07-29T04:26:31.584Z,100187.88
2022-07-29T04:28:33.998Z,100182.31
2022-07-29T04:30:38.070Z,100184.53
2022-07-29T04:35:02.275Z,100158.31
2022-07-29T04:37:05.584Z,100163.78
2022-07-29T04:39:07.921Z,100181.38
2022-07-29T04:41:11.449Z,100164.84
2022-07-29T04:43:14.228Z,100165.59
2022-07-29T04:45:22.230Z,100177.38
2022-07-29T04:47:38.821Z,100161.00
2022-07-29T04:49:44.419Z,100160.25
2022-07-29T04:51:51.603Z,100144.38
2022-07-29T04:53:54.649Z,100155.97
2022-07-29T04:56:08.618Z,100146.63
2022-07-29T04:58:42.011Z,100153.63
2022-07-29T05:01:23.445Z,100143.59
2022-07-29T05:06:15.815Z,100151.53
2022-07-29T05:09:12.955Z,100151.06
2022-07-29T05:11:30.600Z,100166.03
2022-07-29T05:13:54.497Z,100168.13
2022-07-29T05:16:03.396Z,100167.16
2022-07-29T05:18:06.342Z,100160.41
2022-07-29T05:20:11.864Z,100167.53
2022-07-29T05:22:14.073Z,100162.81
2022-07-29T05:24:17.101Z,100169.34
2022-07-29T05:26:19.934Z,100165.78
2022-07-29T05:28:22.305Z,100159.06
2022-07-29T05:30:24.931Z,100157.41
2022-07-29T05:32:27.667Z,100152.03
2022-07-29T05:34:29.898Z,100158.72
2022-07-29T05:36:33.226Z,100163.63
2022-07-29T05:38:37.292Z,100161.16
2022-07-29T05:40:39.592Z,100164.69
2022-07-29T05:42:41.675Z,100170.53
2022-07-29T05:44:44.403Z,100160.06
2022-07-29T05:47:12.587Z,100176.34
2022-07-29T05:52:32.858Z,100168.16
2022-07-29T05:54:59.180Z,100169.13
2022-07-29T05:57:43.775Z,100175.88
2022-07-29T06:00:09.607Z,100157.09
2022-07-29T06:02:21.269Z,100160.63
2022-07-29T06:04:25.036Z,100150.94
2022-07-29T06:06:29.773Z,100151.69
2022-07-29T06:08:32.270Z,100163.16
2022-07-29T06:10:40.280Z,100133.44
2022-07-29T06:12:57.721Z,100137.03
2022-07-29T06:15:03.854Z,100126.41
2022-07-29T06:17:14.821Z,100133.66
2022-07-29T06:19:18.781Z,100148.72
2022-07-29T06:21:33.421Z,100142.34
2022-07-29T06:23:46.012Z,100147.09
2022-07-29T06:25:50.797Z,100137.59
2022-07-29T06:28:01.441Z,100139.63
2022-07-29T06:30:05.896Z,100163.59
2022-07-29T06:39:53.000Z,100146.63
2022-07-29T06:42:15.704Z,100168.50
2022-07-29T06:44:25.153Z,100143.72
2022-07-29T06:46:27.787Z,100167.97
2022-07-29T06:51:22.273Z,100159.84
2022-07-29T06:53:26.010Z,100171.34
2022-07-29T06:55:30.793Z,100173.19
2022-07-29T06:57:37.461Z,100170.47
2022-07-29T06:59:42.666Z,100173.53
2022-07-29T07:01:47.350Z,100174.72
2022-07-29T07:03:56.751Z,100172.16
2022-07-29T07:06:04.419Z,100173.03
2022-07-29T07:08:40.314Z,100170.81
2022-07-29T07:11:25.988Z,100154.50
2022-07-29T07:13:39.669Z,100168.69
2022-07-29T07:15:42.825Z,100179.47
2022-07-29T07:17:45.780Z,100159.41
2022-07-29T07:20:56.006Z,100160.94
2022-07-29T07:26:59.551Z,100162.31
2022-07-29T07:29:22.114Z,100176.25
2022-07-29T07:31:36.243Z,100167.75
2022-07-29T07:33:38.830Z,100160.97
2022-07-29T07:35:46.977Z,100163.91
2022-07-29T07:37:52.330Z,100168.47
2022-07-29T07:40:07.126Z,100161.47
2022-07-29T07:42:09.721Z,100171.84
2022-07-29T07:44:21.246Z,100141.59
2022-07-29T07:46:36.592Z,100170.75
2022-07-29T07:48:46.405Z,100166.66
2022-07-29T07:50:52.671Z,100170.22
2022-07-29T07:52:57.214Z,100170.34
2022-07-29T07:55:02.798Z,100163.38
2022-07-29T07:57:20.817Z,100144.47
2022-07-29T07:59:33.673Z,100158.31
2022-07-29T08:01:47.912Z,100151.88
2022-07-29T08:03:57.670Z,100157.34
2022-07-29T08:06:00.290Z,100165.31
2022-07-29T08:08:05.725Z,100149.50
2022-07-29T08:10:11.127Z,100157.44
2022-07-29T08:12:18.319Z,100157.59
2022-07-29T08:14:23.366Z,100150.75
2022-07-29T08:16:28.288Z,100155.84
2022-07-29T08:18:44.765Z,100151.06
2022-07-29T08:20:52.009Z,100153.72
2022-07-29T08:22:54.339Z,100154.94
2022-07-29T08:24:56.861Z,100165.84
2022-07-29T08:31:07.479Z,100158.44
2022-07-29T08:34:13.508Z,100132.53
2022-07-29T08:36:23.542Z,100144.22
2022-07-29T08:38:29.666Z,100154.44
2022-07-29T08:40:32.828Z,100150.25
2022-07-29T08:42:43.252Z,100156.50
2022-07-29T08:44:55.840Z,100154.34
2022-07-29T08:56:03.630Z,100146.47
2022-07-29T08:58:38.276Z,100127.06
2022-07-29T09:01:12.694Z,100152.00
2022-07-29T09:06:49.130Z,100138.84
2022-07-29T09:08:59.577Z,100139.09
2022-07-29T09:11:05.592Z,100140.84
2022-07-29T09:13:08.480Z,100144.13
2022-07-29T09:15:21.785Z,100132.91
2022-07-29T09:17:54.640Z,100146.41
2022-07-29T09:20:26.707Z,100136.66
2022-07-29T09:23:01.779Z,100141.72
2022-07-29T09:25:37.361Z,100135.47
2022-07-29T09:27:40.620Z,100136.22
2022-07-29T09:29:47.480Z,100146.28
2022-07-29T09:32:11.041Z,100113.00
2022-07-29T09:34:32.636Z,100144.69
2022-07-29T09:36:51.118Z,100141.19
2022-07-29T09:39:02.843Z,100125.06
2022-07-29T09:41:25.774Z,100127.38
2022-07-29T09:43:30.021Z,100129.59
2022-07-29T09:55:18.278Z,100120.78
2022-07-29T09:57:31.737Z,100120.81
2022-07-29T10:18:15.071Z,100113.03
2022-07-29T10:21:36.214Z,100096.50
2022-07-29T10:23:46.530Z,100092.22
2022-07-29T10:25:51.046Z,100100.53
2022-07-29T10:27:55.205Z,100094.28
2022-07-29T10:29:58.206Z,100095.06
2022-07-29T10:32:55.285Z,100115.13
2022-07-29T10:35:29.244Z,100104.56
2022-07-29T10:38:16.172Z,100093.97
2022-07-29T10:40:33.925Z,100122.38
2022-07-29T10:42:42.513Z,100089.34
2022-07-29T10:44:45.484Z,100097.44
2022-07-29T10:49:24.999Z,100096.34
2022-07-29T10:52:03.493Z,100099.81
2022-07-29T10:54:39.677Z,100094.63
2022-07-29T10:57:15.653Z,100095.25
2022-07-29T10:59:21.551Z,100079.31
2022-07-29T11:01:36.996Z,100089.75
2022-07-29T11:03:57.074Z,100082.84
2022-07-29T11:06:14.395Z,100103.97
2022-07-29T11:08:26.398Z,100105.25
2022-07-29T11:10:33.075Z,100087.09
2022-07-29T11:12:48.894Z,100091.81
2022-07-29T11:15:02.101Z,100092.72
2022-07-29T11:17:47.198Z,100104.94
2022-07-29T11:26:23.429Z,100068.59
2022-07-29T11:31:21.364Z,100081.56
2022-07-29T11:33:56.517Z,100096.59
2022-07-29T11:54:04.364Z,100051.28
2022-07-29T11:58:21.072Z,100083.75
2022-07-29T12:01:41.576Z,100054.22
2022-07-29T12:03:49.947Z,100075.97
2022-07-29T12:05:53.752Z,100079.53
2022-07-29T12:08:16.805Z,100060.09
2022-07-29T12:10:30.073Z,100054.19
2022-07-29T12:19:24.553Z,100064.69
2022-07-29T12:22:40.203Z,100064.03
2022-07-29T12:25:32.621Z,100068.22
2022-07-29T12:27:36.404Z,100025.25
2022-07-29T12:30:10.915Z,100050.78
2022-07-29T12:32:14.429Z,100053.78
2022-07-29T12:34:33.023Z,100037.75
2022-07-29T12:36:35.380Z,100052.91
2022-07-29T12:38:38.433Z,100041.75
2022-07-29T12:40:41.575Z,100036.03
2022-07-29T12:43:12.092Z,100025.75
2022-07-29T12:45:14.397Z,100045.97
2022-07-29T12:47:38.447Z,100028.88
2022-07-29T12:52:50.925Z,100040.25
2022-07-29T12:54:53.222Z,100031.00
2022-07-29T13:10:46.933Z,100012.06
2022-07-29T13:25:34.564Z,100012.03
2022-07-29T13:27:46.805Z,99991.16
2022-07-29T13:30:18.316Z,99988.81
2022-07-29T13:32:49.365Z,99997.25
2022-07-29T13:34:54.278Z,99990.53
2022-07-29T13:37:00.172Z,100001.25
2022-07-29T13:39:05.135Z,99989.66
2022-07-29T13:41:07.484Z,99996.81
2022-07-29T13:43:13.044Z,99995.56
2022-07-29T13:45:28.997Z,99992.38
2022-07-29T13:50:40.904Z,99977.84
2022-07-29T13:52:47.117Z,99975.97
2022-07-29T13:54:53.963Z,99958.47
2022-07-29T14:03:00.822Z,99962.91
2022-07-29T14:05:10.433Z,99964.38
2022-07-29T14:07:40.174Z,99961.81
2022-07-29T14:10:33.584Z,99957.59
2022-07-29T14:12:36.394Z,99982.47
2022-07-29T14:14:38.857Z,99983.78
2022-07-29T14:16:47.567Z,99973.84
2022-07-29T14:18:54.154Z,99982.69
2022-07-29T14:20:59.923Z,99971.31
2022-07-29T14:23:02.094Z,99973.00
2022-07-29T14:25:14.236Z,99965.03
2022-07-29T14:27:18.063Z,99958.47
2022-07-29T14:29:20.424Z,99962.28
2022-07-29T14:31:29.150Z,99969.88
2022-07-29T14:33:49.294Z,99950.06
2022-07-29T14:36:01.474Z,99955.53
2022-07-29T14:42:01.922Z,99962.03
2022-07-29T14:46:51.214Z,99970.31
2022-07-29T14:49:09.503Z,99976.19
2022-07-29T14:51:18.514Z,99944.59
2022-07-29T14:53:37.074Z,99944.16
2022-07-29T14:56:34.214Z,99969.03
2022-07-29T15:02:40.016Z,99936.16
2022-07-29T15:05:55.985Z,99927.09
2022-07-29T15:09:07.467Z,99944.16
2022-07-29T15:11:10.009Z,99930.66
2022-07-29T15:13:53.052Z,99957.03
2022-07-29T15:15:59.786Z,99936.97
2022-07-29T15:18:02.939Z,99933.63
2022-07-29T15:20:06.805Z,99932.78
2022-07-29T15:22:14.884Z,99939.69
2022-07-29T15:27:19.695Z,99949.59
2022-07-29T15:29:46.754Z,99943.13
2022-07-29T15:32:23.674Z,99933.63
2022-07-29T15:51:05.003Z,99910.59
2022-07-29T15:53:14.132Z,99910.38
2022-07-29T15:55:24.864Z,99903.59
2022-07-29T15:58:00.840Z,99926.75
2022-07-29T16:00:05.484Z,99899.78
2022-07-29T16:02:16.285Z,99912.44
2022-07-29T16:04:19.127Z,99909.09
2022-07-29T16:06:39.673Z,99917.78
2022-07-29T16:11:20.915Z,99894.00
2022-07-29T16:13:23.753Z,99920.94
2022-07-29T16:15:29.724Z,99910.63
2022-07-29T16:17:39.270Z,99916.31
2022-07-29T16:20:23.663Z,99915.69
2022-07-29T16:22:28.293Z,99910.63
2022-07-29T16:24:35.843Z,99916.97
2022-07-29T16:27:35.583Z,99896.94
2022-07-29T16:29:47.193Z,99895.50
2022-07-29T16:31:49.761Z,99892.50
2022-07-29T16:34:08.821Z,99906.66
2022-07-29T16:58:40.515Z,99902.84
2022-07-29T17:02:17.512Z,99876.72
2022-07-29T17:04:21.645Z,99868.72
2022-07-29T17:07:02.346Z,99890.22
2022-07-29T17:10:08.301Z,99878.84
2022-07-29T17:16:00.172Z,99872.94
2022-07-29T17:22:21.419Z,99892.94
2022-07-29T17:25:12.591Z,99877.53
2022-07-29T17:31:29.869Z,99881.22
2022-07-29T17:37:57.874Z,99878.19
2022-07-29T17:37:59.271Z,99891.13
2022-07-29T17:40:47.296Z,99893.31
2022-07-29T17:43:29.387Z,99887.81
2022-07-29T17:50:24.404Z,99914.69
2022-07-29T17:52:41.456Z,99905.75
2022-07-29T17:55:01.292Z,99894.72
2022-07-29T17:59:54.796Z,99905.47
2022-07-29T18:02:13.654Z,99900.38
2022-07-29T18:04:39.646Z,99900.13
2022-07-29T18:07:02.109Z,99932.13
2022-07-29T18:10:02.406Z,99909.47
2022-07-29T18:15:34.719Z,99929.84
2022-07-29T18:23:40.149Z,99925.19
2022-07-29T18:29:14.652Z,99920.66
2022-07-29T18:35:25.706Z,99931.88
2022-07-29T18:49:59.228Z,99939.19
2022-07-29T18:56:04.245Z,99927.03
2022-07-29T18:59:03.638Z,99932.75
2022-07-29T19:01:16.427Z,99927.59
2022-07-29T19:03:22.314Z,99935.88
2022-07-29T19:05:28.757Z,99934.16
2022-07-29T19:07:34.545Z,99931.19
2022-07-29T19:09:37.554Z,99937.97
2022-07-29T19:11:57.996Z,99925.78
2022-07-29T19:14:07.673Z,99926.63
2022-07-29T19:16:16.047Z,99940.94
2022-07-29T19:18:22.326Z,99943.72
2022-07-29T19:20:26.032Z,99935.66
2022-07-29T19:22:33.266Z,99931.66
2022-07-29T19:24:44.386Z,99921.50
2022-07-29T19:26:56.152Z,99924.16
2022-07-29T19:29:03.911Z,99937.09
2022-07-29T19:31:11.220Z,99927.22
2022-07-29T19:33:13.786Z,99911.31
2022-07-29T19:35:16.722Z,99910.88
2022-07-29T19:37:22.115Z,99913.25
2022-07-29T19:39:34.886Z,99910.44
2022-07-29T19:41:38.837Z,99919.25
2022-07-29T19:43:50.825Z,99926.66
2022-07-29T19:46:07.590Z,99918.91
2022-07-29T19:48:10.397Z,99901.88
2022-07-29T19:50:33.214Z,99913.44
2022-07-29T19:52:36.046Z,99912.44
2022-07-29T19:54:38.314Z,99905.56
2022-07-29T19:56:42.085Z,99912.69
2022-07-29T19:58:45.123Z,99895.44
2022-07-29T20:00:48.006Z,99893.94
2022-07-29T20:02:51.217Z,99910.41
2022-07-29T20:04:53.804Z,99914.31
2022-07-29T20:06:56.596Z,99928.06
2022-07-29T20:09:20.423Z,99906.38
2022-07-29T20:11:30.938Z,99912.81
2022-07-29T20:13:41.051Z,99906.88
2022-07-29T20:16:04.472Z,99904.03
2022-07-29T20:18:26.468Z,99914.91
2022-07-29T20:20:30.322Z,99912.53
2022-07-29T20:23:01.409Z,99922.25
2022-07-29T20:25:12.300Z,99919.22
2022-07-29T20:27:26.147Z,99911.94
2022-07-29T20:29:44.439Z,99921.81
2022-07-29T20:31:56.468Z,99926.75
2022-07-29T20:34:30.153Z,99926.91
2022-07-29T20:36:48.322Z,99926.25
2022-07-29T20:39:16.894Z,99936.44
2022-07-29T20:45:34.345Z,99930.56
2022-07-29T20:48:19.464Z,99938.03
2022-07-29T20:50:37.083Z,99933.97
2022-07-29T20:53:01.341Z,99925.50
2022-07-29T20:55:13.282Z,99933.66
2022-07-29T20:57:39.253Z,99942.84
2022-07-29T21:00:12.089Z,99948.94
2022-07-29T21:02:31.070Z,99944.88
2022-07-29T21:05:09.322Z,99940.41
2022-07-29T21:07:51.271Z,99947.59
2022-07-29T21:10:29.717Z,99938.22
2022-07-29T21:13:03.281Z,99930.63
2022-07-29T21:15:19.040Z,99943.50
2022-07-29T21:17:44.954Z,99929.94
2022-07-29T21:19:47.452Z,99926.56
2022-07-29T21:22:00.480Z,99943.50
2022-07-29T21:24:16.697Z,99932.81
2022-07-29T21:26:34.657Z,99938.06
2022-07-29T21:28:37.602Z,99916.69
2022-07-29T21:30:43.781Z,99910.63
2022-07-29T21:32:46.406Z,99910.63
2022-07-29T21:34:48.802Z,99921.16
2022-07-29T21:36:52.077Z,99909.94
2022-07-29T21:38:55.525Z,99903.16
2022-07-29T21:40:58.875Z,99897.91
2022-07-29T21:43:00.965Z,99908.09
2022-07-29T21:45:03.408Z,99916.22
2022-07-29T21:47:08.983Z,99900.13
2022-07-29T21:49:11.220Z,99921.50
2022-07-29T21:51:13.369Z,99906.91
2022-07-29T21:53:16.204Z,99893.50
2022-07-29T21:55:19.393Z,99904.69
2022-07-29T21:57:23.183Z,99899.44
2022-07-29T21:59:25.995Z,99898.94
2022-07-29T22:01:28.096Z,99902.00
2022-07-29T22:03:41.045Z,99899.44
2022-07-29T22:05:44.751Z,99913.69
2022-07-29T22:07:54.397Z,99916.38
2022-07-29T22:09:59.695Z,99915.03
2022-07-29T22:12:02.464Z,99920.28
2022-07-29T22:14:07.866Z,99903.19
2022-07-29T22:16:11.355Z,99891.81
2022-07-29T22:18:14.147Z,99912.00
2022-07-29T22:20:23.727Z,99920.63
2022-07-29T22:22:25.874Z,99922.50
2022-07-29T22:24:28.212Z,99913.34
2022-07-29T22:26:30.235Z,99909.97
2022-07-29T22:28:32.403Z,99909.28
2022-07-29T22:30:34.917Z,99890.63
2022-07-29T22:32:37.219Z,99907.56
2022-07-29T22:34:39.327Z,99906.56
2022-07-29T22:36:41.736Z,99903.34
2022-07-29T22:38:43.890Z,99875.31
2022-07-29T22:40:46.618Z,99892.63
2022-07-29T22:42:49.043Z,99880.06
2022-07-29T22:44:51.345Z,99892.94
2022-07-29T22:46:53.562Z,99885.31
2022-07-29T22:48:57.263Z,99877.34
2022-07-29T22:51:00.067Z,99855.66
2022-07-29T22:53:02.472Z,99859.41
2022-07-29T22:55:06.135Z,99859.19
2022-07-29T22:57:08.091Z,99845.47
2022-07-29T22:59:10.333Z,99840.88
2022-07-29T23:01:12.953Z,99861.06
2022-07-29T23:03:15.158Z,99843.44
2022-07-29T23:05:17.246Z,99843.78
2022-07-29T23:07:19.652Z,99834.94
2022-07-29T23:09:21.803Z,99843.06
2022-07-29T23:11:24.194Z,99842.88
2022-07-29T23:13:26.500Z,99840.19
2022-07-29T23:15:28.573Z,99839.66
2022-07-29T23:17:30.659Z,99848.81
2022-07-29T23:19:38.394Z,99827.13
2022-07-29T23:21:40.694Z,99845.06
2022-07-29T23:23:42.791Z,99820.50
2022-07-29T23:25:45.163Z,99843.38
2022-07-29T23:27:47.569Z,99839.66
2022-07-29T23:29:49.682Z,99841.69
2022-07-29T23:31:51.997Z,99840.69
2022-07-29T23:33:54.262Z,99846.94
2022-07-29T23:35:56.301Z,99840.00
2022-07-29T23:37:58.858Z,99836.59
2022-07-29T23:40:01.056Z,99834.06
2022-07-29T23:42:03.578Z,99820.88
2022-07-29T23:44:06.138Z,99827.81
2022-07-29T23:46:08.189Z,99821.03
2022-07-29T23:48:10.483Z,99811.88
2022-07-29T23:50:13.255Z,99827.44
2022-07-29T23:52:16.709Z,99820.50
2022-07-29T23:54:18.941Z,99816.28
2022-07-29T23:56:21.770Z,99815.59
2022-07-29T23:58:24.062Z,99813.91
